Time;durP1;ratioP1;P1;durP2;ratioP2;P2;SDS_P1;SDS_P2;PMS_P1;PMS_P2;Temp;Humidity;BMP_temperature;BMP_pressure;BME280_temperature;BME280_humidity;BME280_pressure;Samples;Min_cycle;Max_cycle;Signal;HPM_P1;HPM_P2
2023/12/06 00:02:16;;;;;;;1.65;1.02;;;;;;;3.95;80.40;95969.53;5060453;28;20076;-80
2023/12/06 00:04:44;;;;;;;5.05;2.72;;;;;;;3.96;80.32;95975.50;5060048;28;20488;-80
2023/12/06 00:07:12;;;;;;;3.20;1.83;;;;;;;3.95;80.18;95971.31;5059188;28;20132;-80
2023/12/06 00:09:39;;;;;;;3.55;1.67;;;;;;;3.95;81.44;95971.31;5060713;28;20055;-80
2023/12/06 00:12:08;;;;;;;1.98;1.00;;;;;;;3.95;81.29;95977.28;5056758;28;20045;-80
2023/12/06 00:14:37;;;;;;;1.58;0.80;;;;;;;3.96;80.97;95971.16;5056657;28;20587;-80
2023/12/06 00:17:04;;;;;;;0.88;0.70;;;;;;;3.98;80.73;95978.72;5056451;28;20106;-79
2023/12/06 00:19:32;;;;;;;1.70;0.80;;;;;;;3.99;80.85;95988.91;5056388;28;20082;-80
2023/12/06 00:22:00;;;;;;;1.05;0.70;;;;;;;4.01;81.30;95984.41;5056150;28;20432;-80
2023/12/06 00:24:27;;;;;;;1.10;0.68;;;;;;;4.03;81.17;95979.88;5055663;28;20060;-80
2023/12/06 00:26:55;;;;;;;0.57;0.40;;;;;;;4.05;81.52;95980.53;5055784;28;20509;-79
2023/12/06 00:29:23;;;;;;;0.73;0.50;;;;;;;4.05;81.79;95983.13;5056189;28;20475;-79
2023/12/06 00:31:52;;;;;;;0.30;0.30;;;;;;;4.07;82.87;95983.78;5055843;28;20048;-80
2023/12/06 00:34:19;;;;;;;0.38;0.38;;;;;;;4.07;82.71;95988.13;5055746;28;20107;-79
2023/12/06 00:36:48;;;;;;;0.40;0.30;;;;;;;4.07;81.95;95988.94;5055889;28;20453;-80
2023/12/06 00:39:15;;;;;;;0.35;0.20;;;;;;;4.09;81.65;95987.00;5055504;28;20523;-80
2023/12/06 00:41:46;;;;;;;1.08;0.20;;;;;;;4.10;81.67;95987.81;5055983;28;20064;-80
2023/12/06 00:44:14;;;;;;;0.40;0.30;;;;;;;4.11;81.79;95990.25;5055607;28;20132;-80
2023/12/06 00:46:42;;;;;;;0.25;0.25;;;;;;;4.13;81.64;95984.91;5055796;28;20075;-79
2023/12/06 00:49:11;;;;;;;0.25;0.25;;;;;;;4.13;81.98;95993.47;5055126;28;20484;-80
2023/12/06 00:51:39;;;;;;;0.68;0.32;;;;;;;4.15;81.86;96000.25;5055673;28;20087;-80
2023/12/06 00:54:07;;;;;;;0.20;0.20;;;;;;;4.15;81.54;95995.09;5055537;28;20072;-80
2023/12/06 00:56:34;;;;;;;0.13;0.13;;;;;;;4.16;81.60;95996.72;5055220;28;20099;-79
2023/12/06 00:59:03;;;;;;;0.20;0.20;;;;;;;4.17;81.45;96003.47;5054881;28;20595;-80
2023/12/06 01:01:31;;;;;;;0.10;0.10;;;;;;;4.18;81.35;96005.13;5055171;28;20103;-79
2023/12/06 01:03:59;;;;;;;0.10;0.10;;;;;;;4.18;81.20;96005.13;5055279;28;20429;-80
2023/12/06 01:06:28;;;;;;;0.50;0.50;;;;;;;4.16;81.46;96004.47;5055098;28;20049;-80
2023/12/06 01:08:56;;;;;;;0.15;0.10;;;;;;;4.17;81.41;96000.91;5055049;28;20053;-80
2023/12/06 01:11:24;;;;;;;0.25;0.25;;;;;;;4.18;81.46;96015.44;5055502;28;20044;-80
2023/12/06 01:13:51;;;;;;;0.15;0.10;;;;;;;4.17;81.75;96013.81;5054559;28;20048;-80
2023/12/06 01:16:19;;;;;;;0.15;0.15;;;;;;;4.17;82.02;96008.66;5055656;28;20466;-80
2023/12/06 01:18:47;;;;;;;0.10;0.10;;;;;;;4.18;82.05;96007.69;5054731;28;20053;-80
2023/12/06 01:21:15;;;;;;;0.10;0.10;;;;;;;4.18;81.54;96010.28;5054796;28;20048;-80
2023/12/06 01:23:45;;;;;;;0.40;0.20;;;;;;;4.18;81.99;96010.28;5055059;28;20088;-80
2023/12/06 01:26:12;;;;;;;0.10;0.10;;;;;;;4.19;81.80;96017.03;5053881;28;20132;-80
2023/12/06 01:28:41;;;;;;;0.10;0.10;;;;;;;4.19;81.98;96019.63;5054455;28;20049;-80
2023/12/06 01:31:09;;;;;;;0.98;0.20;;;;;;;4.17;81.40;96013.81;5053975;28;20496;-80
2023/12/06 01:33:37;;;;;;;0.35;0.13;;;;;;;4.18;81.89;96025.78;5055931;28;20080;-80
2023/12/06 01:36:05;;;;;;;1.23;0.00;;;;;;;4.18;81.76;96028.34;5055239;28;20053;-80
2023/12/06 01:38:32;;;;;;;0.17;0.10;;;;;;;4.19;81.50;96027.38;5054351;28;20049;-80
2023/12/06 01:41:01;;;;;;;0.50;0.20;;;;;;;4.18;81.45;96025.78;5054567;28;20076;-80
2023/12/06 01:43:29;;;;;;;0.20;0.20;;;;;;;4.16;81.51;96028.50;5054810;28;20420;-80
2023/12/06 01:45:56;;;;;;;0.10;0.10;;;;;;;4.16;81.19;96027.69;5054512;28;20052;-80
2023/12/06 01:48:24;;;;;;;0.20;0.20;;;;;;;4.15;81.20;96032.03;5055009;28;20512;-80
2023/12/06 01:50:53;;;;;;;0.20;0.10;;;;;;;4.13;81.56;96037.38;5054633;28;20052;-80
2023/12/06 01:53:20;;;;;;;0.10;0.10;;;;;;;4.13;81.19;96036.53;5053995;28;20497;-80
2023/12/06 01:55:48;;;;;;;0.10;0.10;;;;;;;4.13;81.27;96032.19;5054051;28;20049;-80
2023/12/06 01:58:19;;;;;;;0.13;0.10;;;;;;;4.14;81.82;96038.16;5053699;28;20072;-80
2023/12/06 02:00:47;;;;;;;0.20;0.10;;;;;;;4.13;81.57;96037.38;5054476;28;20106;-80
2023/12/06 02:03:15;;;;;;;0.10;0.10;;;;;;;4.12;81.65;96051.22;5054504;28;20040;-80
2023/12/06 02:05:44;;;;;;;0.25;0.13;;;;;;;4.14;81.80;96040.75;5054024;28;20053;-80
2023/12/06 02:08:12;;;;;;;2.15;1.02;;;;;;;4.12;81.83;96043.47;5054371;28;20106;-79
2023/12/06 02:10:40;;;;;;;0.95;0.50;;;;;;;4.13;81.84;96044.28;5054177;28;20049;-80
2023/12/06 02:13:08;;;;;;;0.13;0.10;;;;;;;4.12;81.41;96046.06;5054498;28;20056;-80
2023/12/06 02:15:37;;;;;;;0.10;0.10;;;;;;;4.12;82.00;96051.22;5054388;28;20049;-80
2023/12/06 02:18:05;;;;;;;0.10;0.10;;;;;;;4.12;81.87;96048.63;5053750;28;20048;-80
2023/12/06 02:20:33;;;;;;;1.17;0.03;;;;;;;4.12;81.24;96053.81;5062494;28;20075;-80
2023/12/06 02:23:03;;;;;;;0.10;0.10;;;;;;;4.11;81.45;96057.34;5065053;28;20045;-80
2023/12/06 02:25:32;;;;;;;0.20;0.20;;;;;;;4.12;81.08;96053.81;5063969;28;20523;-80
2023/12/06 02:28:00;;;;;;;0.15;0.10;;;;;;;4.12;81.51;96043.47;5055252;28;20137;-80
2023/12/06 02:30:28;;;;;;;0.20;0.10;;;;;;;4.14;81.36;96045.91;5055134;28;20084;-79
2023/12/06 02:32:55;;;;;;;0.10;0.10;;;;;;;4.15;81.53;96041.56;5053873;28;20052;-80
2023/12/06 02:35:27;;;;;;;0.52;0.30;;;;;;;4.15;81.85;96057.84;5053562;28;20443;-80
2023/12/06 02:37:56;;;;;;;0.20;0.20;;;;;;;4.16;81.71;96049.16;5052813;28;20053;-80
2023/12/06 02:40:26;;;;;;;0.13;0.13;;;;;;;4.17;81.61;96052.53;5053727;28;20049;-79
2023/12/06 02:42:55;;;;;;;0.10;0.10;;;;;;;4.18;82.23;96056.75;5052709;28;20068;-79
2023/12/06 02:45:22;;;;;;;0.10;0.10;;;;;;;4.17;81.66;96055.91;5052257;28;20459;-80
2023/12/06 02:47:50;;;;;;;0.20;0.20;;;;;;;4.16;81.79;96053.50;5052277;28;20346;-79
2023/12/06 02:50:18;;;;;;;0.08;0.08;;;;;;;4.13;81.94;96058.00;5053192;28;20505;-79
2023/12/06 02:52:46;;;;;;;0.10;0.10;;;;;;;4.13;81.89;96052.03;5053852;28;20099;-80
2023/12/06 02:55:13;;;;;;;0.10;0.10;;;;;;;4.13;82.21;96054.59;5053527;28;20053;-80
2023/12/06 02:57:41;;;;;;;0.28;0.10;;;;;;;4.13;82.08;96054.59;5053813;28;20045;-80
2023/12/06 03:00:11;;;;;;;0.20;0.20;;;;;;;4.15;81.83;96062.19;5053581;28;20085;-80
2023/12/06 03:02:39;;;;;;;0.20;0.20;;;;;;;4.14;81.82;96056.25;5053704;28;20068;-79
2023/12/06 03:05:07;;;;;;;0.10;0.10;;;;;;;4.13;81.62;96060.59;5053722;28;20109;-79
2023/12/06 03:07:35;;;;;;;0.10;0.10;;;;;;;4.12;82.14;96061.53;5057270;28;20512;-80
2023/12/06 03:10:03;;;;;;;0.25;0.10;;;;;;;4.14;82.49;96051.06;5057633;28;20084;-79
2023/12/06 03:12:31;;;;;;;0.10;0.10;;;;;;;4.13;82.36;96058.00;5057193;28;20123;-80
2023/12/06 03:14:58;;;;;;;0.10;0.10;;;;;;;4.13;82.31;96059.75;5057472;28;20092;-80
2023/12/06 03:17:27;;;;;;;0.52;0.15;;;;;;;4.13;82.17;96062.34;5057055;28;20045;-80
2023/12/06 03:19:55;;;;;;;0.10;0.10;;;;;;;4.13;82.06;96052.03;5057558;28;20107;-80
2023/12/06 03:22:23;;;;;;;0.45;0.17;;;;;;;4.11;82.19;96059.94;5057055;28;20493;-80
2023/12/06 03:24:52;;;;;;;0.20;0.20;;;;;;;4.08;82.08;96057.66;5057225;28;20091;-80
2023/12/06 03:27:20;;;;;;;0.30;0.20;;;;;;;4.07;82.32;96061.22;5056863;28;20049;-80
2023/12/06 03:29:48;;;;;;;0.32;0.17;;;;;;;4.08;82.44;96056.84;5056823;28;20417;-80
2023/12/06 03:32:15;;;;;;;0.20;0.20;;;;;;;4.06;82.05;96064.72;5056836;28;20080;-79
2023/12/06 03:34:44;;;;;;;0.15;0.10;;;;;;;4.06;82.59;96067.31;5056949;28;20055;-80
2023/12/06 03:37:12;;;;;;;0.20;0.20;;;;;;;4.06;82.10;96064.72;5056354;28;20428;-80
2023/12/06 03:39:39;;;;;;;0.30;0.28;;;;;;;4.05;81.69;96057.97;5057180;28;20075;-79
2023/12/06 03:42:07;;;;;;;0.20;0.20;;;;;;;4.06;82.50;96058.78;5056848;28;20088;-80
2023/12/06 03:44:35;;;;;;;0.47;0.47;;;;;;;4.05;82.16;96055.38;5056832;28;20131;-80
2023/12/06 03:47:03;;;;;;;2.17;0.32;;;;;;;4.06;82.39;96064.72;5056432;28;20053;-80
2023/12/06 03:49:31;;;;;;;0.52;0.30;;;;;;;4.06;83.00;96064.72;5056732;28;20055;-80
2023/12/06 03:52:00;;;;;;;0.65;0.40;;;;;;;4.07;83.64;96063.00;5058629;28;20087;-80
2023/12/06 03:54:27;;;;;;;0.20;0.20;;;;;;;4.10;83.79;96070.41;5071850;28;20128;-80
2023/12/06 03:56:55;;;;;;;0.85;0.40;;;;;;;4.11;83.75;96066.84;5070877;28;20060;-80
2023/12/06 03:59:23;;;;;;;0.82;0.10;;;;;;;4.11;83.48;96066.84;5065825;28;20397;-80
2023/12/06 04:01:50;;;;;;;0.25;0.20;;;;;;;4.12;83.25;96069.28;5056705;28;20088;-80
2023/12/06 04:04:18;;;;;;;0.52;0.30;;;;;;;4.11;83.24;96062.53;5056865;28;20126;-80
2023/12/06 04:06:46;;;;;;;0.75;0.43;;;;;;;4.12;83.34;96064.13;5056177;28;20048;-79
2023/12/06 04:09:15;;;;;;;0.30;0.25;;;;;;;4.15;83.63;96067.38;5056572;28;20041;-80
2023/12/06 04:11:43;;;;;;;0.20;0.20;;;;;;;4.14;83.97;96061.41;5055929;28;20126;-80
2023/12/06 04:14:10;;;;;;;0.30;0.20;;;;;;;4.16;83.31;96063.84;5056349;28;20080;-80
2023/12/06 04:16:38;;;;;;;0.35;0.30;;;;;;;4.15;83.21;96067.38;5055467;28;20132;-80
2023/12/06 04:19:05;;;;;;;0.40;0.40;;;;;;;4.16;83.37;96069.00;5055604;28;20044;-80
2023/12/06 04:21:33;;;;;;;0.93;0.20;;;;;;;4.16;83.49;96064.63;5055781;28;20494;-80
2023/12/06 04:24:01;;;;;;;0.38;0.38;;;;;;;4.17;83.86;96070.59;5055882;28;20496;-79
2023/12/06 04:26:30;;;;;;;0.10;0.10;;;;;;;4.17;83.08;96075.75;5056202;28;20056;-80
2023/12/06 04:28:57;;;;;;;1.25;0.38;;;;;;;4.17;83.07;96073.19;5055793;28;20075;-79
2023/12/06 04:31:25;;;;;;;0.30;0.20;;;;;;;4.17;83.37;96076.56;5055809;28;20111;-79
2023/12/06 04:33:53;;;;;;;0.20;0.20;;;;;;;4.18;83.32;96078.19;5055996;28;20045;-80
2023/12/06 04:36:21;;;;;;;0.45;0.30;;;;;;;4.20;83.26;96085.78;5106774;22;20049;-79
2023/12/06 04:38:48;;;;;;;0.90;0.30;;;;;;;4.21;83.60;96082.25;5054320;28;20053;-79
2023/12/06 04:41:16;;;;;;;0.75;0.40;;;;;;;4.22;83.78;96089.00;5055168;28;20092;-78
2023/12/06 04:43:45;;;;;;;0.30;0.30;;;;;;;4.22;83.06;96089.00;5055119;28;20111;-79
2023/12/06 04:46:13;;;;;;;0.43;0.43;;;;;;;4.22;83.27;96096.75;5055276;28;20049;-79
2023/12/06 04:48:41;;;;;;;0.88;0.50;;;;;;;4.22;83.51;96089.84;5054887;28;20525;-79
2023/12/06 04:51:09;;;;;;;1.35;1.02;;;;;;;4.24;83.20;96095.66;5054585;28;20496;-79
2023/12/06 04:53:36;;;;;;;1.10;0.70;;;;;;;4.24;83.39;96098.25;5054213;28;20049;-79
2023/12/06 04:56:04;;;;;;;0.47;0.30;;;;;;;4.24;83.16;96095.66;5053859;28;20140;-79
2023/12/06 04:58:32;;;;;;;0.85;0.43;;;;;;;4.24;83.59;96098.25;5053421;28;20049;-79
2023/12/06 05:01:01;;;;;;;0.35;0.35;;;;;;;4.23;82.91;96095.81;5054215;28;20076;-79
2023/12/06 05:03:29;;;;;;;0.17;0.17;;;;;;;4.23;83.24;96101.78;5054012;28;20436;-79
2023/12/06 05:05:57;;;;;;;0.40;0.30;;;;;;;4.23;83.15;96100.97;5053918;28;20135;-79
2023/12/06 05:08:25;;;;;;;0.73;0.30;;;;;;;4.22;82.96;96105.31;5053531;28;20095;-79
2023/12/06 05:10:53;;;;;;;0.30;0.30;;;;;;;4.22;83.12;96105.31;5054202;28;20493;-79
2023/12/06 05:13:21;;;;;;;0.85;0.20;;;;;;;4.21;82.91;96111.44;5054141;28;20080;-79
2023/12/06 05:15:48;;;;;;;1.85;0.57;;;;;;;4.22;83.25;96104.50;5049588;28;20053;-79
2023/12/06 05:18:17;;;;;;;2.17;0.35;;;;;;;4.22;82.97;96107.06;5043506;28;20428;-79
2023/12/06 05:20:45;;;;;;;0.30;0.30;;;;;;;4.23;82.86;96116.47;5050801;28;20512;-79
2023/12/06 05:23:13;;;;;;;0.45;0.20;;;;;;;4.22;83.13;96104.50;5054432;28;20056;-79
2023/12/06 05:25:41;;;;;;;0.40;0.38;;;;;;;4.24;83.23;96112.91;5046324;28;20432;-79
2023/12/06 05:28:09;;;;;;;1.65;0.30;;;;;;;4.23;82.75;96103.53;5040116;28;20076;-79
2023/12/06 05:30:36;;;;;;;0.40;0.40;;;;;;;4.24;82.94;96102.56;5046899;28;20041;-79
2023/12/06 05:33:06;;;;;;;1.20;0.30;;;;;;;4.25;82.98;96101.63;5054274;28;20128;-79
2023/12/06 05:35:37;;;;;;;0.47;0.20;;;;;;;4.24;83.24;96102.56;5053974;28;20084;-80
2023/12/06 05:38:04;;;;;;;1.27;0.28;;;;;;;4.25;82.97;96106.78;5053838;28;20135;-78
2023/12/06 05:40:33;;;;;;;0.95;0.28;;;;;;;4.23;83.11;96099.19;5046053;28;20574;-79
2023/12/06 05:43:02;;;;;;;0.35;0.30;;;;;;;4.24;83.14;96102.56;5046184;28;20055;-78
2023/12/06 05:45:30;;;;;;;0.28;0.20;;;;;;;4.25;82.89;96111.94;5045767;28;20401;-79
2023/12/06 05:47:57;;;;;;;5.28;1.55;;;;;;;4.24;82.96;96111.16;5033940;28;20045;-79
2023/12/06 05:50:25;;;;;;;1.75;1.15;;;;;;;4.26;83.12;96113.56;5039672;28;20131;-79
2023/12/06 05:52:54;;;;;;;17.38;8.27;;;;;;;4.25;83.08;96112.75;5053931;28;20389;-79
2023/12/06 05:55:22;;;;;;;71.55;38.63;;;;;;;4.28;83.56;96109.84;5053523;28;20056;-79
2023/12/06 05:57:50;;;;;;;6.85;3.20;;;;;;;4.30;83.64;96122.63;5053185;28;20053;-79
2023/12/06 06:00:18;;;;;;;1.42;0.90;;;;;;;4.31;83.60;96119.09;5044627;28;20057;-79
2023/12/06 06:02:46;;;;;;;0.77;0.50;;;;;;;4.30;83.77;96113.09;5044851;28;20048;-79
2023/12/06 06:05:16;;;;;;;0.82;0.60;;;;;;;4.30;83.29;96120.03;5071913;28;20071;-80
2023/12/06 06:07:44;;;;;;;0.63;0.30;;;;;;;4.31;83.29;96122.47;5053371;28;20127;-79
2023/12/06 06:10:13;;;;;;;0.50;0.40;;;;;;;4.30;83.46;96126.00;5044773;28;20520;-79
2023/12/06 06:12:41;;;;;;;0.63;0.43;;;;;;;4.30;83.59;96123.41;5052892;28;20424;-80
2023/12/06 06:15:09;;;;;;;0.50;0.50;;;;;;;4.30;83.15;96130.34;5049949;28;20052;-79
2023/12/06 06:17:36;;;;;;;0.60;0.60;;;;;;;4.31;83.60;96126.84;5032556;28;20572;-80
2023/12/06 06:20:06;;;;;;;1.50;0.98;;;;;;;4.30;83.44;96132.94;5044102;28;20171;-80
2023/12/06 06:22:34;;;;;;;1.73;1.33;;;;;;;4.33;83.95;96127.50;5053917;28;20053;-80
2023/12/06 06:25:01;;;;;;;2.17;0.70;;;;;;;4.31;83.55;96130.22;5053750;28;20056;-80
2023/12/06 06:27:30;;;;;;;1.23;0.43;;;;;;;4.31;82.78;96137.16;5049275;28;20059;-80
2023/12/06 06:29:58;;;;;;;0.40;0.40;;;;;;;4.30;82.90;96136.31;5051117;28;20519;-80
2023/12/06 06:32:26;;;;;;;0.75;0.50;;;;;;;4.32;82.77;96147.31;5035636;28;20056;-81
2023/12/06 06:34:54;;;;;;;0.90;0.50;;;;;;;4.31;82.15;96139.75;5036436;28;20045;-80
2023/12/06 06:37:21;;;;;;;1.98;0.75;;;;;;;4.31;82.16;96152.66;5045504;28;20080;-81
2023/12/06 06:39:50;;;;;;;0.73;0.63;;;;;;;4.32;83.09;96154.25;5049874;28;20056;-80
2023/12/06 06:42:17;;;;;;;1.13;0.60;;;;;;;4.32;82.88;96154.25;5058011;28;20127;-80
2023/12/06 06:44:47;;;;;;;0.90;0.70;;;;;;;4.30;83.10;96163.94;5058839;28;20040;-81
2023/12/06 06:47:23;;;;;;;1.00;0.95;;;;;;;4.29;83.75;96157.16;5069529;28;20049;-80
2023/12/06 06:49:51;;;;;;;1.17;0.65;;;;;;;4.27;83.33;96159.88;5060082;28;20499;-78
2023/12/06 06:52:19;;;;;;;0.63;0.63;;;;;;;4.26;83.54;96155.69;5063747;28;20723;-79
2023/12/06 06:54:47;;;;;;;1.10;0.68;;;;;;;4.26;84.40;96150.53;5070200;28;20496;-80
2023/12/06 06:57:15;;;;;;;1.85;0.70;;;;;;;4.26;84.38;96157.44;5055054;28;20045;-81
2023/12/06 06:59:43;;;;;;;0.63;0.63;;;;;;;4.24;83.97;96159.38;5078760;28;20041;-81
2023/12/06 07:02:11;;;;;;;0.88;0.50;;;;;;;4.23;84.36;96162.94;5058808;28;20083;-80
2023/12/06 07:04:39;;;;;;;1.30;0.47;;;;;;;4.23;84.31;96173.25;5056827;28;20052;-80
2023/12/06 07:07:07;;;;;;;1.17;0.90;;;;;;;4.23;84.17;96168.09;5049364;28;20136;-81
2023/12/06 07:09:35;;;;;;;0.88;0.85;;;;;;;4.21;83.81;96170.00;5052934;28;20118;-80
2023/12/06 07:12:09;;;;;;;1.38;1.00;;;;;;;4.23;83.86;96181.00;5046777;28;20044;-81
2023/12/06 07:14:37;;;;;;;1.45;1.05;;;;;;;4.21;84.07;96180.34;5069741;28;20463;-80
2023/12/06 07:17:05;;;;;;;0.65;0.65;;;;;;;4.22;83.99;96184.53;5058879;28;20084;-80
2023/12/06 07:19:35;;;;;;;0.77;0.77;;;;;;;4.23;83.66;96183.59;5059001;28;20133;-81
2023/12/06 07:22:03;;;;;;;1.15;0.70;;;;;;;4.22;84.00;96185.34;5058831;28;20053;-80
2023/12/06 07:24:31;;;;;;;1.60;0.85;;;;;;;4.22;84.30;96190.53;5058549;28;20052;-81
2023/12/06 07:26:59;;;;;;;0.70;0.70;;;;;;;4.23;83.96;96189.53;5051009;28;20095;-80
2023/12/06 07:29:27;;;;;;;2.25;1.17;;;;;;;4.23;84.32;96188.75;5051354;28;20102;-81
2023/12/06 07:31:56;;;;;;;0.55;0.55;;;;;;;4.23;84.52;96188.75;5058744;28;20143;-81
2023/12/06 07:34:25;;;;;;;0.75;0.75;;;;;;;4.22;84.29;96197.44;5038861;28;20045;-81
2023/12/06 07:37:07;;;;;;;0.60;0.60;;;;;;;4.23;84.15;96193.91;5038096;28;20080;-80
2023/12/06 07:39:34;;;;;;;2.45;1.38;;;;;;;4.21;84.26;96196.63;5049742;28;20079;-80
2023/12/06 07:42:02;;;;;;;0.73;0.73;;;;;;;4.21;84.17;96190.66;5051883;28;20132;-81
2023/12/06 07:44:29;;;;;;;0.65;0.65;;;;;;;4.21;84.28;96186.31;5037489;28;20544;-80
2023/12/06 07:46:57;;;;;;;2.17;0.63;;;;;;;4.23;84.38;96193.91;5052621;28;20049;-80
2023/12/06 07:49:25;;;;;;;1.52;0.80;;;;;;;4.24;84.64;96198.94;5053432;28;20493;-80
2023/12/06 07:51:52;;;;;;;1.70;0.90;;;;;;;4.23;84.34;96199.88;5054500;28;20427;-80
2023/12/06 07:54:21;;;;;;;2.08;0.70;;;;;;;4.24;84.90;96200.69;5055326;28;20049;-80
2023/12/06 07:56:49;;;;;;;0.73;0.70;;;;;;;4.26;84.39;96203.91;5057661;28;20053;-80
2023/12/06 07:59:17;;;;;;;1.35;0.65;;;;;;;4.27;84.19;96206.34;5070797;28;20033;-80
2023/12/06 08:01:44;;;;;;;1.30;0.88;;;;;;;4.31;84.09;96201.72;5076709;28;20089;-80
2023/12/06 08:04:13;;;;;;;1.08;0.60;;;;;;;4.31;84.71;96196.53;5075414;28;20037;-80
2023/12/06 08:06:41;;;;;;;1.15;0.90;;;;;;;4.31;84.41;96206.88;5058577;28;20037;-81
2023/12/06 08:09:12;;;;;;;1.65;1.08;;;;;;;4.31;84.38;96206.88;5066964;28;20028;-81
2023/12/06 08:11:42;;;;;;;0.82;0.80;;;;;;;4.31;84.44;96207.69;5079299;28;20075;-81
2023/12/06 08:14:09;;;;;;;1.00;0.80;;;;;;;4.32;84.10;96211.06;5079239;28;20087;-80
2023/12/06 08:16:37;;;;;;;0.80;0.80;;;;;;;4.32;83.76;96211.88;5067587;28;20029;-80
2023/12/06 08:19:05;;;;;;;0.70;0.70;;;;;;;4.37;84.13;96214.00;5057698;28;20053;-81
2023/12/06 08:21:33;;;;;;;1.75;1.00;;;;;;;4.38;84.28;96217.41;5049173;28;20516;-81
2023/12/06 08:24:02;;;;;;;1.63;0.98;;;;;;;4.37;84.35;96224.31;5036936;28;20148;-81
2023/12/06 08:26:30;;;;;;;1.17;1.08;;;;;;;4.37;84.17;96224.31;5037395;28;20068;-80
2023/12/06 08:29:00;;;;;;;1.20;1.10;;;;;;;4.39;84.33;96227.56;5049770;28;20576;-80
2023/12/06 08:31:28;;;;;;;1.65;0.88;;;;;;;4.37;84.79;96221.72;5040403;28;20049;-80
2023/12/06 08:33:57;;;;;;;1.75;1.10;;;;;;;4.38;85.04;96232.91;5036407;28;20516;-79
2023/12/06 08:36:25;;;;;;;0.93;0.90;;;;;;;4.39;84.88;96235.31;5035815;28;20504;-79
2023/12/06 08:38:53;;;;;;;1.20;0.98;;;;;;;4.40;84.95;96234.34;5037851;28;20045;-79
2023/12/06 08:41:23;;;;;;;1.40;1.27;;;;;;;4.42;85.07;96235.03;5055985;28;20052;-79
2023/12/06 08:43:50;;;;;;;1.80;1.10;;;;;;;4.42;85.13;96235.03;5055258;28;20053;-79
2023/12/06 08:46:20;;;;;;;1.45;1.30;;;;;;;4.44;84.75;96246.00;5044147;28;20057;-80
2023/12/06 08:48:48;;;;;;;2.78;1.38;;;;;;;4.45;84.58;96250.19;5049693;28;20637;-80
2023/12/06 08:51:15;;;;;;;2.92;2.00;;;;;;;4.46;84.41;96251.84;5068289;28;20063;-80
2023/12/06 08:53:43;;;;;;;1.67;1.40;;;;;;;4.47;84.46;96250.88;5035485;28;20050;-80
2023/12/06 08:56:11;;;;;;;1.77;1.33;;;;;;;4.46;84.64;96254.41;5037622;28;20500;-81
2023/12/06 08:58:38;;;;;;;1.50;1.20;;;;;;;4.47;84.84;96258.59;5043448;28;20158;-81
2023/12/06 09:01:06;;;;;;;1.50;1.40;;;;;;;4.46;84.41;96258.75;5050644;28;20075;-79
2023/12/06 09:03:35;;;;;;;1.55;1.33;;;;;;;4.46;84.30;96258.75;5038940;28;20127;-78
2023/12/06 09:06:03;;;;;;;1.83;1.30;;;;;;;4.46;84.25;96261.34;5054589;28;20143;-79
2023/12/06 09:08:33;;;;;;;1.80;1.25;;;;;;;4.45;83.78;96264.91;5054243;28;20099;-78
2023/12/06 09:11:01;;;;;;;1.55;1.38;;;;;;;4.45;83.66;96270.06;5042740;28;20111;-78
2023/12/06 09:13:28;;;;;;;1.67;1.38;;;;;;;4.44;84.11;96264.09;5045198;28;20048;-79
2023/12/06 09:15:58;;;;;;;1.25;1.13;;;;;;;4.46;84.52;96272.50;5045563;28;20651;-79
2023/12/06 09:18:26;;;;;;;1.40;1.30;;;;;;;4.44;84.23;96274.41;5034342;28;20529;-78
2023/12/06 09:20:55;;;;;;;2.08;1.50;;;;;;;4.44;84.86;96283.91;5037480;28;20055;-78
2023/12/06 09:23:23;;;;;;;2.30;1.60;;;;;;;4.43;84.13;96288.28;5051855;28;20049;-79
2023/12/06 09:25:52;;;;;;;2.75;1.60;;;;;;;4.43;83.68;96292.63;5034573;28;20137;-79
2023/12/06 09:28:19;;;;;;;1.80;1.70;;;;;;;4.41;83.86;96289.41;5034947;28;20053;-78
2023/12/06 09:30:47;;;;;;;1.33;1.23;;;;;;;4.40;83.27;96291.19;5042755;28;20049;-78
2023/12/06 09:33:15;;;;;;;2.17;1.67;;;;;;;4.40;83.40;96295.53;5053785;28;20044;-78
2023/12/06 09:35:43;;;;;;;2.83;1.90;;;;;;;4.40;83.36;96304.09;5054051;28;20045;-78
2023/12/06 09:38:13;;;;;;;1.73;1.63;;;;;;;4.38;82.88;96306.00;5048341;28;20463;-77
2023/12/06 09:40:41;;;;;;;2.47;1.85;;;;;;;4.36;82.56;96302.75;5052969;28;20056;-78
2023/12/06 09:43:09;;;;;;;2.20;2.00;;;;;;;4.33;82.97;96303.88;5053811;28;20083;-78
2023/12/06 09:45:37;;;;;;;4.18;1.98;;;;;;;4.33;82.96;96310.81;5043400;28;20123;-78
2023/12/06 09:48:05;;;;;;;3.03;2.70;;;;;;;4.32;83.34;96307.41;5053019;28;20052;-78
2023/12/06 09:50:35;;;;;;;5.65;3.47;;;;;;;4.33;83.72;96315.97;5051479;28;20202;-77
2023/12/06 09:53:02;;;;;;;4.25;3.55;;;;;;;4.34;83.47;96315.00;5049755;28;20100;-77
2023/12/06 09:55:37;;;;;;;5.93;4.55;;;;;;;4.33;83.21;96314.22;5050165;28;20131;-78
2023/12/06 09:58:06;;;;;;;8.07;5.57;;;;;;;4.31;82.29;96310.16;5037860;28;20045;-78
2023/12/06 10:00:35;;;;;;;6.70;5.50;;;;;;;4.26;82.13;96312.34;5046877;28;20045;-77
2023/12/06 10:03:03;;;;;;;9.40;6.88;;;;;;;4.23;81.81;96315.25;5036042;28;20489;-77
2023/12/06 10:05:30;;;;;;;8.77;7.03;;;;;;;4.21;82.48;96317.16;5052964;28;20048;-77
2023/12/06 10:07:58;;;;;;;10.02;7.90;;;;;;;4.20;82.66;96312.94;5050619;28;20501;-80
2023/12/06 10:10:26;;;;;;;9.13;7.18;;;;;;;4.20;83.22;96307.78;5052863;28;20057;-77
2023/12/06 10:12:56;;;;;;;10.10;7.93;;;;;;;4.19;82.59;96304.41;5041406;28;20049;-77
2023/12/06 10:15:24;;;;;;;11.73;7.78;;;;;;;4.18;82.58;96310.53;5034688;28;20049;-77
2023/12/06 10:17:52;;;;;;;11.15;8.25;;;;;;;4.17;82.36;96313.25;5032849;28;20083;-77
2023/12/06 10:20:22;;;;;;;9.52;7.30;;;;;;;4.15;81.68;96315.19;5034153;28;20051;-77
2023/12/06 10:22:50;;;;;;;9.98;7.90;;;;;;;4.12;82.02;96321.44;5033328;28;20059;-77
2023/12/06 10:25:19;;;;;;;9.55;7.93;;;;;;;4.12;82.20;96317.09;5041347;28;20045;-78
2023/12/06 10:27:46;;;;;;;9.90;7.90;;;;;;;4.10;82.08;96326.75;5033621;28;20072;-78
2023/12/06 10:30:21;;;;;;;11.15;8.05;;;;;;;4.09;81.62;96332.09;5033992;28;20076;-77
2023/12/06 10:32:51;;;;;;;10.75;8.32;;;;;;;4.07;82.21;96329.63;5045705;28;20053;-78
2023/12/06 10:35:19;;;;;;;9.27;7.45;;;;;;;4.07;81.97;96336.56;5052561;28;20492;-78
2023/12/06 10:37:49;;;;;;;10.13;7.78;;;;;;;4.05;81.99;96333.34;5103505;22;20474;-79
2023/12/06 10:40:23;;;;;;;12.93;8.63;;;;;;;4.04;82.54;96329.91;5073488;28;20098;-80
2023/12/06 10:42:57;;;;;;;14.27;8.20;;;;;;;4.07;83.20;96331.41;5072501;28;20074;-81
2023/12/06 10:45:26;;;;;;;9.90;8.00;;;;;;;4.10;83.30;96337.06;5073154;28;20523;-80
2023/12/06 10:47:56;;;;;;;12.07;7.35;;;;;;;4.07;82.40;96334.81;5067744;28;20083;-79
2023/12/06 10:50:25;;;;;;;9.00;7.40;;;;;;;4.06;82.42;96335.75;5035319;28;20049;-79
2023/12/06 10:52:55;;;;;;;10.07;8.07;;;;;;;4.05;82.58;96339.31;5049646;28;20049;-80
2023/12/06 10:55:23;;;;;;;10.05;7.65;;;;;;;4.02;82.24;96331.84;5053121;28;20131;-81
2023/12/06 10:57:53;;;;;;;9.00;7.13;;;;;;;4.00;81.50;96338.94;5052134;28;20128;-79
2023/12/06 11:00:23;;;;;;;9.50;7.60;;;;;;;3.97;82.05;96341.00;5051772;28;20045;-79
2023/12/06 11:02:52;;;;;;;10.65;8.38;;;;;;;3.96;82.60;96332.44;5042104;28;20527;-79
2023/12/06 11:05:22;;;;;;;9.40;7.50;;;;;;;3.96;83.36;96342.75;5033106;28;20061;-79
2023/12/06 11:08:07;;;;;;;9.65;7.32;;;;;;;3.95;83.30;96340.31;5047801;28;20509;-79
2023/12/06 11:10:49;;;;;;;9.05;7.75;;;;;;;3.95;82.50;96341.13;5052076;28;20064;-79
2023/12/06 11:13:30;;;;;;;9.07;7.55;;;;;;;3.91;82.44;96339.78;5050464;28;20053;-79
2023/12/06 11:16:07;;;;;;;11.07;7.50;;;;;;;3.88;82.98;96337.53;5062168;28;20130;-80
2023/12/06 11:18:44;;;;;;;10.50;8.07;;;;;;;3.87;82.90;96338.47;5047714;28;20049;-79
2023/12/06 11:21:12;;;;;;;12.32;9.45;;;;;;;3.87;82.82;96346.19;5037614;28;20103;-79
2023/12/06 11:23:41;;;;;;;15.45;11.20;;;;;;;3.85;82.80;96342.97;5052564;28;20078;-79
2023/12/06 11:26:11;;;;;;;12.23;9.80;;;;;;;3.85;82.90;96340.41;5052684;28;20235;-78
2023/12/06 11:28:40;;;;;;;13.50;10.65;;;;;;;3.84;83.21;96349.88;5058163;28;20055;-81
2023/12/06 11:31:12;;;;;;;16.77;12.07;;;;;;;3.85;83.67;96355.88;5063410;28;20041;-80
2023/12/06 11:33:55;;;;;;;17.25;11.68;;;;;;;3.86;84.74;96355.72;5060656;28;20049;-80
2023/12/06 11:36:24;;;;;;;17.52;12.88;;;;;;;3.85;83.71;96350.72;5058558;28;20048;-81
2023/12/06 11:39:02;;;;;;;15.57;11.75;;;;;;;3.83;82.94;96350.88;5045942;28;20052;-80
2023/12/06 11:41:43;;;;;;;15.68;12.27;;;;;;;3.80;82.90;96352.91;5056524;28;20052;-81
2023/12/06 11:44:20;;;;;;;15.55;11.65;;;;;;;3.77;82.39;96348.84;5049644;28;20060;-81
2023/12/06 11:47:00;;;;;;;15.85;11.70;;;;;;;3.77;83.12;96358.38;5057025;28;20084;-80
2023/12/06 11:49:33;;;;;;;15.98;12.02;;;;;;;3.78;83.54;96354.81;5046890;28;20054;-80